DWU weather

Ashland Regional Airport
Ashland, Kentucky, United States

Public forecast

Using degrees Fahrenheit for public forecast. Weather courtesy of forecast.io.

METAR (pilot weather report)

Retrieved 2019/04/19 17:56 UTC (16 minutes ago):

KDWU 191756Z AUTO 12009KT 10SM FEW025 SCT065 18/14 A2947 RMK AO2 SLP974 60000 T01830144 10194 20178 58020

TAF (pilot weather forecast)

Closest forecast is Tri-State/Milton J. Ferguson Field, 14.1 nm (26.1 km) SE. Retrieved 2019/04/19 18:39 UTC (0 seconds ago):

TAF KHTS 191737Z 1918/2018 18008KT P6SM -RA OVC060 FM192000 29007KT P6SM -RA OVC035 FM200200 30005KT 6SM SHRA BR BKN035 FM200600 22007KT P6SM OVC035 FM201300 20008G16KT P6SM BKN025